createdAt,value
2022-11-18T00:00:23.593Z,14.20
2022-11-18T00:03:27.877Z,14.08
2022-11-18T00:06:30.823Z,14.21
2022-11-18T00:09:32.912Z,14.00
2022-11-18T00:12:53.607Z,14.12
2022-11-18T00:16:06.405Z,14.10
2022-11-18T00:19:08.583Z,14.13
2022-11-18T00:22:13.357Z,14.21
2022-11-18T00:25:15.493Z,14.14
2022-11-18T00:28:17.557Z,14.03
2022-11-18T00:31:20.812Z,14.00
2022-11-18T00:34:24.035Z,14.08
2022-11-18T00:37:26.097Z,14.02
2022-11-18T00:40:28.257Z,14.11
2022-11-18T00:43:31.020Z,14.09
2022-11-18T00:46:33.185Z,14.02
2022-11-18T00:49:35.190Z,14.03
2022-11-18T00:52:37.353Z,14.05
2022-11-18T00:55:39.403Z,14.09
2022-11-18T00:58:41.461Z,13.96
2022-11-18T01:01:43.631Z,13.95
2022-11-18T01:04:45.713Z,13.97
2022-11-18T01:07:48.011Z,14.00
2022-11-18T01:10:50.971Z,14.08
2022-11-18T01:13:54.469Z,14.03
2022-11-18T01:16:57.163Z,13.96
2022-11-18T01:20:00.098Z,13.97
2022-11-18T01:23:02.382Z,14.06
2022-11-18T01:26:07.035Z,14.10
2022-11-18T01:29:09.449Z,14.06
2022-11-18T01:32:25.806Z,14.01
2022-11-18T01:35:28.094Z,13.58
2022-11-18T01:38:31.023Z,14.16
2022-11-18T01:41:33.399Z,14.16
2022-11-18T01:44:58.259Z,14.12
2022-11-18T01:48:09.846Z,14.09
2022-11-18T01:51:19.571Z,14.06
2022-11-18T01:54:31.458Z,14.01
2022-11-18T01:57:34.110Z,13.86
2022-11-18T02:00:37.010Z,13.88
2022-11-18T02:03:39.104Z,13.95
2022-11-18T02:06:42.894Z,13.90
2022-11-18T02:09:46.362Z,13.81
2022-11-18T02:12:50.859Z,13.92
2022-11-18T02:16:03.153Z,13.84
2022-11-18T02:19:15.379Z,13.95
2022-11-18T02:22:23.523Z,13.96
2022-11-18T02:25:34.479Z,13.91
2022-11-18T02:28:59.155Z,13.77
2022-11-18T02:32:38.822Z,13.89
2022-11-18T02:36:02.239Z,13.88
2022-11-18T02:39:16.785Z,13.64
2022-11-18T02:42:19.956Z,13.79
2022-11-18T02:45:23.051Z,13.82
2022-11-18T02:48:29.144Z,13.71
2022-11-18T02:51:33.175Z,13.94
2022-11-18T02:54:38.603Z,13.98
2022-11-18T02:57:44.095Z,13.93
2022-11-18T03:00:57.340Z,13.90
2022-11-18T03:03:59.813Z,13.94
2022-11-18T03:07:30.176Z,13.95
2022-11-18T03:10:40.602Z,13.97
2022-11-18T03:14:16.222Z,13.92
2022-11-18T03:17:26.584Z,13.79
2022-11-18T03:20:34.082Z,13.84
2022-11-18T03:23:43.197Z,13.81
2022-11-18T03:26:51.237Z,13.87
2022-11-18T03:30:01.698Z,13.80
2022-11-18T03:33:17.300Z,13.86
2022-11-18T03:36:23.644Z,13.80
2022-11-18T03:39:28.711Z,13.80
2022-11-18T03:42:45.463Z,13.79
2022-11-18T03:45:51.013Z,13.85
2022-11-18T03:48:59.209Z,13.76
2022-11-18T03:52:10.770Z,13.83
2022-11-18T03:55:18.225Z,13.86
2022-11-18T03:58:27.039Z,13.87
2022-11-18T04:01:44.265Z,13.80
2022-11-18T04:04:49.478Z,13.73
2022-11-18T04:07:59.179Z,13.90
2022-11-18T04:11:37.209Z,13.97
2022-11-18T04:14:42.413Z,13.63
2022-11-18T04:17:44.595Z,13.74
2022-11-18T04:20:46.731Z,13.72
2022-11-18T04:23:48.691Z,13.76
2022-11-18T04:26:50.708Z,13.85
2022-11-18T04:29:52.955Z,14.08
2022-11-18T04:32:55.054Z,14.10
2022-11-18T04:35:57.222Z,13.85
2022-11-18T04:38:59.392Z,13.54
2022-11-18T04:42:01.556Z,13.64
2022-11-18T04:45:04.102Z,14.61
2022-11-18T04:48:06.712Z,15.00
2022-11-18T04:51:10.127Z,14.98
2022-11-18T04:54:16.247Z,15.57
2022-11-18T04:57:18.492Z,16.01
2022-11-18T05:00:22.630Z,16.68
2022-11-18T05:03:24.747Z,16.58
2022-11-18T05:06:26.990Z,16.72
2022-11-18T05:09:31.993Z,17.20
2022-11-18T05:12:49.988Z,17.19
2022-11-18T05:15:52.325Z,17.88
2022-11-18T05:18:55.490Z,18.11
2022-11-18T05:21:58.435Z,17.43
2022-11-18T05:25:00.995Z,17.51
2022-11-18T05:28:03.588Z,17.49
2022-11-18T05:31:10.260Z,17.35
2022-11-18T05:34:13.465Z,17.59
2022-11-18T05:37:15.728Z,17.93
2022-11-18T05:40:18.011Z,18.06
2022-11-18T05:43:20.115Z,17.80
2022-11-18T05:46:22.160Z,18.00
2022-11-18T05:49:25.316Z,17.68
2022-11-18T05:52:28.400Z,17.77
2022-11-18T05:55:38.807Z,17.94
2022-11-18T05:58:40.854Z,17.90
2022-11-18T06:02:08.541Z,19.44
2022-11-18T06:05:12.463Z,18.61
2022-11-18T06:08:17.368Z,18.01
2022-11-18T06:11:21.341Z,18.73
2022-11-18T06:14:31.088Z,18.58
2022-11-18T06:17:46.068Z,18.70
2022-11-18T06:20:48.265Z,20.19
2022-11-18T06:23:50.704Z,19.91
2022-11-18T06:26:53.431Z,18.91
2022-11-18T06:29:56.269Z,19.89
2022-11-18T06:32:58.511Z,20.17
2022-11-18T06:36:00.577Z,19.17
2022-11-18T06:39:06.261Z,18.75
2022-11-18T06:42:08.284Z,18.70
2022-11-18T06:45:11.983Z,19.07
2022-11-18T06:48:14.141Z,19.18
2022-11-18T06:51:17.237Z,22.08
2022-11-18T06:54:20.396Z,25.82
2022-11-18T06:57:25.850Z,27.17
2022-11-18T07:00:30.356Z,27.97
2022-11-18T07:03:33.398Z,27.06
2022-11-18T07:06:36.848Z,25.96
2022-11-18T07:09:39.216Z,23.06
2022-11-18T07:12:41.331Z,21.25
2022-11-18T07:15:43.383Z,20.06
2022-11-18T07:18:47.154Z,19.78
2022-11-18T07:21:49.272Z,19.37
2022-11-18T07:24:51.335Z,19.05
2022-11-18T07:27:53.530Z,18.89
2022-11-18T07:31:06.356Z,18.77
2022-11-18T07:34:08.595Z,18.69
2022-11-18T07:37:10.776Z,18.78
2022-11-18T07:40:12.834Z,19.74
2022-11-18T07:43:14.869Z,19.68
2022-11-18T07:46:21.561Z,18.96
2022-11-18T07:49:25.366Z,18.63
2022-11-18T07:52:27.595Z,19.88
2022-11-18T07:55:32.270Z,19.87
2022-11-18T07:58:36.196Z,18.88
2022-11-18T08:01:38.528Z,18.40
2022-11-18T08:04:41.011Z,19.92
2022-11-18T08:07:43.258Z,19.89
2022-11-18T08:10:45.409Z,18.99
2022-11-18T08:13:47.541Z,18.65
2022-11-18T08:16:50.104Z,20.10
2022-11-18T08:19:52.176Z,19.87
2022-11-18T08:22:54.259Z,19.16
2022-11-18T08:26:03.049Z,18.80
2022-11-18T08:29:05.538Z,20.37
2022-11-18T08:32:07.740Z,19.84
2022-11-18T08:35:11.479Z,19.31
2022-11-18T08:38:13.683Z,18.83
2022-11-18T08:41:29.782Z,20.41
2022-11-18T08:44:34.719Z,19.88
2022-11-18T08:47:37.964Z,19.29
2022-11-18T08:50:39.964Z,18.90
2022-11-18T08:53:42.617Z,20.54
2022-11-18T08:56:44.722Z,20.09
2022-11-18T08:59:46.979Z,19.04
2022-11-18T09:02:49.172Z,18.86
2022-11-18T09:05:51.399Z,20.37
2022-11-18T09:08:54.290Z,20.07
2022-11-18T09:11:56.544Z,19.28
2022-11-18T09:15:15.106Z,18.93
2022-11-18T09:18:17.832Z,20.50
2022-11-18T09:21:19.974Z,19.67
2022-11-18T09:24:22.229Z,19.29
2022-11-18T09:27:27.467Z,19.72
2022-11-18T09:30:31.425Z,20.32
2022-11-18T09:33:33.882Z,20.06
2022-11-18T09:36:36.197Z,19.07
2022-11-18T09:39:39.352Z,18.72
2022-11-18T09:43:10.837Z,18.72
2022-11-18T09:46:51.512Z,18.46
2022-11-18T09:50:26.665Z,18.44
2022-11-18T09:53:47.547Z,18.07
2022-11-18T09:56:52.102Z,17.99
2022-11-18T09:59:54.946Z,17.84
2022-11-18T10:03:10.679Z,17.99
2022-11-18T10:06:27.807Z,18.52
2022-11-18T10:09:42.065Z,18.60
2022-11-18T10:12:57.393Z,18.86
2022-11-18T10:16:13.906Z,18.55
2022-11-18T10:19:44.409Z,18.67
2022-11-18T10:23:22.717Z,18.56
2022-11-18T10:26:58.317Z,18.48
2022-11-18T10:30:14.033Z,18.79
2022-11-18T10:33:25.211Z,18.92
2022-11-18T10:36:34.974Z,18.99
2022-11-18T10:39:59.419Z,18.57
2022-11-18T10:43:01.550Z,18.46
2022-11-18T10:46:27.931Z,18.25
2022-11-18T10:49:39.248Z,17.99
2022-11-18T10:52:53.569Z,18.00
2022-11-18T10:56:08.079Z,17.75
2022-11-18T10:59:38.711Z,17.91
2022-11-18T11:02:41.085Z,17.85
2022-11-18T11:05:43.177Z,17.63
2022-11-18T11:09:07.847Z,17.69
2022-11-18T11:12:19.258Z,17.68
2022-11-18T11:15:46.382Z,17.55
2022-11-18T11:18:55.424Z,17.56
2022-11-18T11:21:57.951Z,17.24
2022-11-18T11:25:01.106Z,17.17
2022-11-18T11:28:31.170Z,17.02
2022-11-18T11:31:46.708Z,16.98
2022-11-18T11:34:57.541Z,16.90
2022-11-18T11:38:17.399Z,16.82
2022-11-18T11:41:23.183Z,16.79
2022-11-18T11:44:40.085Z,16.79
2022-11-18T11:47:57.326Z,16.74
2022-11-18T11:51:06.472Z,16.74
2022-11-18T11:54:21.315Z,16.92
2022-11-18T11:57:29.059Z,16.71
2022-11-18T12:00:40.783Z,16.64
2022-11-18T12:03:52.377Z,16.66
2022-11-18T12:06:56.461Z,16.63
2022-11-18T12:10:20.814Z,16.65
2022-11-18T12:13:56.095Z,16.64
2022-11-18T12:17:22.776Z,16.57
2022-11-18T12:20:47.236Z,16.46
2022-11-18T12:24:27.453Z,16.50
2022-11-18T12:27:32.594Z,16.53
2022-11-18T12:30:36.639Z,16.59
2022-11-18T12:33:55.789Z,16.57
2022-11-18T12:36:58.763Z,16.58
2022-11-18T12:40:01.261Z,16.52
2022-11-18T12:43:43.477Z,16.57
2022-11-18T12:46:50.723Z,16.58
2022-11-18T12:50:14.754Z,16.50
2022-11-18T12:53:33.351Z,16.62
2022-11-18T12:56:37.242Z,16.74
2022-11-18T12:59:39.398Z,16.63
2022-11-18T13:02:53.755Z,16.64
2022-11-18T13:06:04.359Z,16.66
2022-11-18T13:09:19.931Z,16.67
2022-11-18T13:12:29.355Z,16.73
2022-11-18T13:16:00.455Z,16.79
2022-11-18T13:19:02.596Z,16.65
2022-11-18T13:22:23.103Z,16.73
2022-11-18T13:25:26.447Z,16.67
2022-11-18T13:28:33.458Z,16.56
2022-11-18T13:32:00.644Z,16.53
2022-11-18T13:35:16.129Z,16.44
2022-11-18T13:38:28.400Z,16.34
2022-11-18T13:41:33.952Z,16.39
2022-11-18T13:44:38.072Z,16.27
2022-11-18T13:47:55.906Z,16.24
2022-11-18T13:51:00.747Z,16.19
2022-11-18T13:54:02.811Z,16.28
2022-11-18T13:57:05.029Z,16.26
2022-11-18T14:00:19.777Z,16.20
2022-11-18T14:03:30.103Z,16.18
2022-11-18T14:06:34.802Z,16.13
2022-11-18T14:09:36.899Z,16.04
2022-11-18T14:12:38.918Z,16.09
2022-11-18T14:15:44.055Z,16.07
2022-11-18T14:18:48.790Z,16.04
2022-11-18T14:21:50.941Z,16.01
2022-11-18T14:25:01.876Z,15.91
2022-11-18T14:28:17.836Z,15.87
2022-11-18T14:31:19.747Z,15.92
2022-11-18T14:34:26.701Z,15.93
2022-11-18T14:37:32.259Z,15.85
2022-11-18T14:40:34.527Z,15.77
2022-11-18T14:43:36.604Z,15.69
2022-11-18T14:46:39.287Z,15.80
2022-11-18T14:49:41.472Z,15.69
2022-11-18T14:52:43.540Z,15.79
2022-11-18T14:55:49.600Z,15.81
2022-11-18T14:58:52.337Z,15.86
2022-11-18T15:01:56.623Z,15.82
2022-11-18T15:05:00.632Z,15.69
2022-11-18T15:08:03.212Z,15.68
2022-11-18T15:11:05.278Z,15.70
2022-11-18T15:14:08.743Z,15.95
2022-11-18T15:17:13.202Z,16.10
2022-11-18T15:20:18.803Z,16.11
2022-11-18T15:23:23.495Z,16.02
2022-11-18T15:26:38.619Z,16.18
2022-11-18T15:29:40.631Z,16.33
2022-11-18T15:32:43.146Z,16.33
2022-11-18T15:35:45.104Z,16.23
2022-11-18T15:38:47.939Z,16.17
2022-11-18T15:41:50.111Z,15.94
2022-11-18T15:44:52.166Z,16.11
2022-11-18T15:47:54.216Z,16.90
2022-11-18T15:50:56.678Z,18.32
2022-11-18T15:53:58.713Z,18.93
2022-11-18T15:57:00.772Z,19.32
2022-11-18T16:00:04.700Z,18.99
2022-11-18T16:03:15.325Z,17.47
2022-11-18T16:06:17.704Z,16.68
2022-11-18T16:09:19.878Z,16.31
2022-11-18T16:12:40.824Z,16.11
2022-11-18T16:15:48.428Z,15.97
2022-11-18T16:18:54.599Z,15.90
2022-11-18T16:21:57.342Z,15.97
2022-11-18T16:24:59.529Z,16.03
2022-11-18T16:28:07.437Z,15.84
2022-11-18T16:31:42.151Z,15.98
2022-11-18T16:34:44.152Z,16.10
2022-11-18T16:37:46.174Z,16.09
2022-11-18T16:40:55.530Z,16.22
2022-11-18T16:44:00.989Z,16.15
2022-11-18T16:47:08.983Z,16.15
2022-11-18T16:50:16.719Z,16.06
2022-11-18T16:53:19.532Z,16.25
2022-11-18T16:56:23.821Z,16.22
2022-11-18T16:59:29.151Z,16.21
2022-11-18T17:02:31.243Z,16.36
2022-11-18T17:05:36.043Z,16.34
2022-11-18T17:08:38.298Z,16.36
2022-11-18T17:11:40.715Z,16.14
2022-11-18T17:14:43.048Z,15.89
2022-11-18T17:17:45.134Z,15.82
2022-11-18T17:20:47.488Z,15.66
2022-11-18T17:23:51.351Z,15.53
2022-11-18T17:26:53.616Z,15.41
2022-11-18T17:29:56.472Z,15.46
2022-11-18T17:33:04.335Z,15.41
2022-11-18T17:39:25.540Z,15.41
2022-11-18T17:42:28.740Z,15.30
2022-11-18T17:45:31.872Z,15.35
2022-11-18T17:48:33.878Z,15.40
2022-11-18T17:51:37.541Z,15.41
2022-11-18T17:54:40.006Z,15.38
2022-11-18T17:57:44.874Z,15.42
2022-11-18T18:00:47.008Z,15.30
2022-11-18T18:03:49.307Z,15.37
2022-11-18T18:07:03.346Z,15.40
2022-11-18T18:10:08.005Z,15.34
2022-11-18T18:13:28.756Z,15.38
2022-11-18T18:16:40.322Z,15.49
2022-11-18T18:19:44.190Z,15.32
2022-11-18T18:22:49.424Z,15.44
2022-11-18T18:25:51.507Z,15.58
2022-11-18T18:28:53.744Z,15.53
2022-11-18T18:31:55.892Z,15.51
2022-11-18T18:34:57.925Z,15.46
2022-11-18T18:38:30.765Z,15.57
2022-11-18T18:49:24.727Z,15.41
2022-11-18T18:52:37.662Z,15.53
2022-11-18T18:55:45.140Z,15.55
2022-11-18T18:58:50.213Z,15.60
2022-11-18T19:01:55.158Z,15.58
2022-11-18T19:04:57.321Z,15.57
2022-11-18T19:08:00.717Z,15.42
2022-11-18T19:11:31.630Z,15.42
2022-11-18T19:14:40.231Z,15.32
2022-11-18T19:17:42.709Z,15.52
2022-11-18T19:20:45.535Z,15.39
2022-11-18T19:23:49.981Z,15.53
2022-11-18T19:26:54.414Z,15.59
2022-11-18T19:29:59.297Z,15.44
2022-11-18T19:33:01.373Z,15.52
2022-11-18T19:36:05.172Z,15.45
2022-11-18T19:39:07.350Z,15.50
2022-11-18T19:42:11.203Z,15.49
2022-11-18T19:45:14.960Z,15.38
2022-11-18T19:48:17.119Z,15.53
2022-11-18T19:51:19.151Z,15.48
2022-11-18T19:54:21.255Z,15.60
2022-11-18T19:57:25.436Z,15.50
2022-11-18T20:00:27.469Z,15.59
2022-11-18T20:04:05.802Z,15.60
2022-11-18T20:07:08.038Z,15.57
2022-11-18T20:10:10.620Z,15.51
2022-11-18T20:13:13.599Z,15.59
2022-11-18T20:16:19.417Z,15.55
2022-11-18T20:19:21.566Z,15.50
2022-11-18T20:22:23.861Z,15.39
2022-11-18T20:25:25.861Z,15.42
2022-11-18T20:28:27.782Z,15.44
2022-11-18T20:31:30.289Z,15.64
2022-11-18T20:34:35.077Z,15.59
2022-11-18T20:37:37.141Z,15.45
2022-11-18T20:40:39.089Z,15.51
2022-11-18T20:43:41.187Z,15.36
2022-11-18T20:46:43.619Z,15.49
2022-11-18T20:49:45.779Z,15.48
2022-11-18T20:52:47.766Z,15.45
2022-11-18T20:55:50.189Z,15.51
2022-11-18T20:58:52.532Z,15.55
2022-11-18T21:01:55.687Z,15.54
2022-11-18T21:04:58.065Z,15.72
2022-11-18T21:08:00.425Z,15.71
2022-11-18T21:11:04.145Z,15.52
2022-11-18T21:14:24.447Z,15.50
2022-11-18T21:17:26.916Z,15.42
2022-11-18T21:20:47.408Z,15.50
2022-11-18T21:23:49.527Z,15.48
2022-11-18T21:26:58.014Z,15.39
2022-11-18T21:30:00.155Z,15.54
2022-11-18T21:33:02.359Z,15.41
2022-11-18T21:36:04.936Z,15.68
2022-11-18T21:39:07.462Z,15.70
2022-11-18T21:42:09.361Z,15.65
2022-11-18T21:45:11.675Z,15.47
2022-11-18T21:48:13.786Z,15.48
2022-11-18T21:51:18.718Z,15.36
2022-11-18T21:54:20.877Z,15.43
2022-11-18T21:57:23.334Z,15.44
2022-11-18T22:00:25.375Z,15.33
2022-11-18T22:03:27.412Z,15.39
2022-11-18T22:06:32.849Z,15.37
2022-11-18T22:09:36.955Z,15.42
2022-11-18T22:12:40.603Z,15.49
2022-11-18T22:15:42.961Z,15.42
2022-11-18T22:18:50.334Z,15.50
2022-11-18T22:21:55.309Z,15.53
2022-11-18T22:24:57.477Z,15.50
2022-11-18T22:27:59.491Z,15.51
2022-11-18T22:31:03.983Z,15.48
2022-11-18T22:34:06.284Z,15.51
2022-11-18T22:37:08.752Z,15.42
2022-11-18T22:40:11.311Z,15.40
2022-11-18T22:43:13.291Z,15.31
2022-11-18T22:46:15.290Z,15.41
2022-11-18T22:49:17.720Z,15.44
2022-11-18T22:52:20.040Z,15.46
2022-11-18T22:55:22.385Z,15.51
2022-11-18T22:58:24.367Z,15.51
2022-11-18T23:01:26.365Z,15.47
2022-11-18T23:04:28.334Z,15.51
2022-11-18T23:07:30.354Z,15.51
2022-11-18T23:10:32.631Z,15.40
2022-11-18T23:13:56.080Z,15.27
2022-11-18T23:16:58.006Z,15.38
2022-11-18T23:20:00.083Z,15.43
2022-11-18T23:23:02.048Z,15.52
2022-11-18T23:26:10.164Z,15.53
2022-11-18T23:29:13.884Z,15.43
2022-11-18T23:32:15.949Z,15.60
2022-11-18T23:35:18.058Z,15.51
2022-11-18T23:38:20.050Z,15.52
2022-11-18T23:41:23.794Z,15.50
2022-11-18T23:44:45.253Z,15.38
2022-11-18T23:47:47.202Z,15.31
2022-11-18T23:50:56.145Z,15.47
2022-11-18T23:53:58.140Z,15.43
2022-11-18T23:57:00.253Z,15.47
